sensor_id;sensor_type;location;lat;lon;timestamp;P1;durP1;ratioP1;P2;durP2;ratioP2
33830;SDS011;20137;48.834;8.732;2023-09-08T00:00:07;9.27;;;5.57;;
33830;SDS011;20137;48.834;8.732;2023-09-08T00:02:34;9.15;;;5.78;;
33830;SDS011;20137;48.834;8.732;2023-09-08T00:05:00;8.15;;;5.38;;
33830;SDS011;20137;48.834;8.732;2023-09-08T00:07:26;7.78;;;5.40;;
33830;SDS011;20137;48.834;8.732;2023-09-08T00:09:52;10.38;;;5.53;;
33830;SDS011;20137;48.834;8.732;2023-09-08T00:12:18;8.15;;;6.00;;
33830;SDS011;20137;48.834;8.732;2023-09-08T00:14:44;8.48;;;5.63;;
33830;SDS011;20137;48.834;8.732;2023-09-08T00:17:10;9.02;;;5.47;;
33830;SDS011;20137;48.834;8.732;2023-09-08T00:19:36;9.82;;;5.95;;
33830;SDS011;20137;48.834;8.732;2023-09-08T00:22:03;8.10;;;5.40;;
33830;SDS011;20137;48.834;8.732;2023-09-08T00:24:32;12.82;;;6.18;;
33830;SDS011;20137;48.834;8.732;2023-09-08T00:26:58;8.43;;;5.75;;
33830;SDS011;20137;48.834;8.732;2023-09-08T00:29:24;8.88;;;6.35;;
33830;SDS011;20137;48.834;8.732;2023-09-08T00:31:50;7.95;;;5.32;;
33830;SDS011;20137;48.834;8.732;2023-09-08T00:34:16;8.10;;;6.03;;
33830;SDS011;20137;48.834;8.732;2023-09-08T00:36:42;9.02;;;6.00;;
33830;SDS011;20137;48.834;8.732;2023-09-08T00:39:08;7.53;;;5.80;;
33830;SDS011;20137;48.834;8.732;2023-09-08T00:41:34;7.30;;;5.85;;
33830;SDS011;20137;48.834;8.732;2023-09-08T00:44:00;9.25;;;6.40;;
33830;SDS011;20137;48.834;8.732;2023-09-08T00:46:26;7.78;;;5.72;;
33830;SDS011;20137;48.834;8.732;2023-09-08T00:48:53;10.00;;;6.13;;
33830;SDS011;20137;48.834;8.732;2023-09-08T00:51:19;10.85;;;5.68;;
33830;SDS011;20137;48.834;8.732;2023-09-08T00:53:47;9.27;;;6.07;;
33830;SDS011;20137;48.834;8.732;2023-09-08T00:56:13;9.00;;;6.00;;
33830;SDS011;20137;48.834;8.732;2023-09-08T00:58:39;7.55;;;5.45;;
33830;SDS011;20137;48.834;8.732;2023-09-08T01:01:05;7.72;;;5.38;;
33830;SDS011;20137;48.834;8.732;2023-09-08T01:03:31;7.10;;;5.40;;
33830;SDS011;20137;48.834;8.732;2023-09-08T01:05:57;9.93;;;5.38;;
33830;SDS011;20137;48.834;8.732;2023-09-08T01:08:24;9.38;;;5.38;;
33830;SDS011;20137;48.834;8.732;2023-09-08T01:10:51;6.50;;;5.18;;
33830;SDS011;20137;48.834;8.732;2023-09-08T01:13:17;8.32;;;5.97;;
33830;SDS011;20137;48.834;8.732;2023-09-08T01:15:43;8.73;;;6.07;;
33830;SDS011;20137;48.834;8.732;2023-09-08T01:18:09;8.82;;;5.90;;
33830;SDS011;20137;48.834;8.732;2023-09-08T01:25:59;8.73;;;5.57;;
33830;SDS011;20137;48.834;8.732;2023-09-08T01:28:27;7.78;;;5.22;;
33830;SDS011;20137;48.834;8.732;2023-09-08T01:30:53;11.98;;;5.75;;
33830;SDS011;20137;48.834;8.732;2023-09-08T01:33:20;9.85;;;5.88;;
33830;SDS011;20137;48.834;8.732;2023-09-08T01:35:47;8.73;;;5.50;;
33830;SDS011;20137;48.834;8.732;2023-09-08T01:38:14;10.48;;;6.38;;
33830;SDS011;20137;48.834;8.732;2023-09-08T01:40:40;7.82;;;5.57;;
33830;SDS011;20137;48.834;8.732;2023-09-08T01:43:06;8.32;;;5.72;;
33830;SDS011;20137;48.834;8.732;2023-09-08T01:45:32;8.68;;;5.88;;
33830;SDS011;20137;48.834;8.732;2023-09-08T01:47:58;7.47;;;5.75;;
33830;SDS011;20137;48.834;8.732;2023-09-08T01:50:24;9.02;;;5.97;;
33830;SDS011;20137;48.834;8.732;2023-09-08T01:52:50;10.25;;;6.07;;
33830;SDS011;20137;48.834;8.732;2023-09-08T01:55:16;10.52;;;6.05;;
33830;SDS011;20137;48.834;8.732;2023-09-08T01:57:43;7.80;;;6.28;;
33830;SDS011;20137;48.834;8.732;2023-09-08T02:00:11;9.20;;;6.30;;
33830;SDS011;20137;48.834;8.732;2023-09-08T02:02:37;8.18;;;5.97;;
33830;SDS011;20137;48.834;8.732;2023-09-08T02:05:03;7.38;;;5.68;;
33830;SDS011;20137;48.834;8.732;2023-09-08T02:07:29;8.43;;;6.38;;
33830;SDS011;20137;48.834;8.732;2023-09-08T02:09:56;8.77;;;5.80;;
33830;SDS011;20137;48.834;8.732;2023-09-08T02:12:22;7.65;;;5.90;;
33830;SDS011;20137;48.834;8.732;2023-09-08T02:14:48;9.02;;;6.45;;
33830;SDS011;20137;48.834;8.732;2023-09-08T02:17:14;10.70;;;6.32;;
33830;SDS011;20137;48.834;8.732;2023-09-08T02:19:40;9.82;;;6.00;;
33830;SDS011;20137;48.834;8.732;2023-09-08T02:22:06;8.05;;;6.30;;
33830;SDS011;20137;48.834;8.732;2023-09-08T02:24:32;9.57;;;6.00;;
33830;SDS011;20137;48.834;8.732;2023-09-08T02:26:58;13.18;;;6.07;;
33830;SDS011;20137;48.834;8.732;2023-09-08T02:29:25;7.45;;;5.70;;
33830;SDS011;20137;48.834;8.732;2023-09-08T02:31:51;10.38;;;6.38;;
33830;SDS011;20137;48.834;8.732;2023-09-08T02:34:17;9.80;;;6.07;;
33830;SDS011;20137;48.834;8.732;2023-09-08T02:36:43;10.00;;;6.10;;
33830;SDS011;20137;48.834;8.732;2023-09-08T02:39:09;12.07;;;6.57;;
33830;SDS011;20137;48.834;8.732;2023-09-08T02:41:35;8.57;;;5.97;;
33830;SDS011;20137;48.834;8.732;2023-09-08T02:44:01;9.32;;;5.90;;
33830;SDS011;20137;48.834;8.732;2023-09-08T02:46:27;9.07;;;6.70;;
33830;SDS011;20137;48.834;8.732;2023-09-08T02:48:54;8.13;;;6.50;;
33830;SDS011;20137;48.834;8.732;2023-09-08T02:51:20;11.20;;;6.85;;
33830;SDS011;20137;48.834;8.732;2023-09-08T02:53:46;8.63;;;6.53;;
33830;SDS011;20137;48.834;8.732;2023-09-08T02:56:12;9.02;;;6.30;;
33830;SDS011;20137;48.834;8.732;2023-09-08T02:58:38;9.80;;;6.15;;
33830;SDS011;20137;48.834;8.732;2023-09-08T03:01:14;10.95;;;6.80;;
33830;SDS011;20137;48.834;8.732;2023-09-08T03:03:41;10.95;;;6.40;;
33830;SDS011;20137;48.834;8.732;2023-09-08T03:06:07;9.30;;;6.93;;
33830;SDS011;20137;48.834;8.732;2023-09-08T03:08:33;8.20;;;6.53;;
33830;SDS011;20137;48.834;8.732;2023-09-08T03:11:01;10.77;;;6.53;;
33830;SDS011;20137;48.834;8.732;2023-09-08T03:13:27;9.32;;;6.55;;
33830;SDS011;20137;48.834;8.732;2023-09-08T03:15:54;9.73;;;6.43;;
33830;SDS011;20137;48.834;8.732;2023-09-08T03:18:20;9.60;;;6.80;;
33830;SDS011;20137;48.834;8.732;2023-09-08T03:20:50;8.95;;;6.78;;
33830;SDS011;20137;48.834;8.732;2023-09-08T03:23:16;8.75;;;6.82;;
33830;SDS011;20137;48.834;8.732;2023-09-08T03:25:42;9.88;;;6.78;;
33830;SDS011;20137;48.834;8.732;2023-09-08T03:28:08;9.68;;;6.88;;
33830;SDS011;20137;48.834;8.732;2023-09-08T03:30:34;9.85;;;7.15;;
33830;SDS011;20137;48.834;8.732;2023-09-08T03:33:01;9.70;;;6.35;;
33830;SDS011;20137;48.834;8.732;2023-09-08T03:35:27;12.05;;;7.63;;
33830;SDS011;20137;48.834;8.732;2023-09-08T03:37:53;10.00;;;6.93;;
33830;SDS011;20137;48.834;8.732;2023-09-08T03:40:19;11.40;;;6.97;;
33830;SDS011;20137;48.834;8.732;2023-09-08T03:42:45;9.90;;;7.45;;
33830;SDS011;20137;48.834;8.732;2023-09-08T03:45:11;8.55;;;7.18;;
33830;SDS011;20137;48.834;8.732;2023-09-08T03:47:37;11.35;;;6.82;;
33830;SDS011;20137;48.834;8.732;2023-09-08T03:50:03;10.05;;;7.25;;
33830;SDS011;20137;48.834;8.732;2023-09-08T03:52:29;14.07;;;7.70;;
33830;SDS011;20137;48.834;8.732;2023-09-08T03:54:55;11.63;;;7.57;;
33830;SDS011;20137;48.834;8.732;2023-09-08T03:57:21;10.82;;;7.90;;
33830;SDS011;20137;48.834;8.732;2023-09-08T03:59:47;10.45;;;7.60;;
33830;SDS011;20137;48.834;8.732;2023-09-08T04:02:14;8.90;;;7.28;;
33830;SDS011;20137;48.834;8.732;2023-09-08T04:04:40;9.00;;;7.40;;
33830;SDS011;20137;48.834;8.732;2023-09-08T04:07:06;7.80;;;6.63;;
33830;SDS011;20137;48.834;8.732;2023-09-08T04:09:32;8.73;;;7.53;;
33830;SDS011;20137;48.834;8.732;2023-09-08T04:11:58;15.55;;;7.90;;
33830;SDS011;20137;48.834;8.732;2023-09-08T04:14:24;10.50;;;7.93;;
33830;SDS011;20137;48.834;8.732;2023-09-08T04:16:52;9.82;;;7.45;;
33830;SDS011;20137;48.834;8.732;2023-09-08T04:19:18;11.68;;;8.48;;
33830;SDS011;20137;48.834;8.732;2023-09-08T04:21:44;13.27;;;8.35;;
33830;SDS011;20137;48.834;8.732;2023-09-08T04:24:10;10.40;;;7.93;;
33830;SDS011;20137;48.834;8.732;2023-09-08T04:26:36;10.73;;;7.63;;
33830;SDS011;20137;48.834;8.732;2023-09-08T04:29:02;13.10;;;8.25;;
33830;SDS011;20137;48.834;8.732;2023-09-08T04:31:28;11.73;;;7.40;;
33830;SDS011;20137;48.834;8.732;2023-09-08T04:33:54;13.07;;;8.48;;
33830;SDS011;20137;48.834;8.732;2023-09-08T04:36:20;11.45;;;8.20;;
33830;SDS011;20137;48.834;8.732;2023-09-08T04:38:46;10.13;;;8.27;;
33830;SDS011;20137;48.834;8.732;2023-09-08T04:41:12;10.65;;;7.43;;
33830;SDS011;20137;48.834;8.732;2023-09-08T04:43:38;10.38;;;7.82;;
33830;SDS011;20137;48.834;8.732;2023-09-08T04:46:04;10.50;;;8.02;;
33830;SDS011;20137;48.834;8.732;2023-09-08T04:48:30;10.73;;;8.30;;
33830;SDS011;20137;48.834;8.732;2023-09-08T04:50:57;9.77;;;7.88;;
33830;SDS011;20137;48.834;8.732;2023-09-08T04:53:23;12.98;;;8.18;;
33830;SDS011;20137;48.834;8.732;2023-09-08T04:55:49;11.80;;;8.13;;
33830;SDS011;20137;48.834;8.732;2023-09-08T04:58:15;12.48;;;8.52;;
33830;SDS011;20137;48.834;8.732;2023-09-08T05:00:41;13.15;;;8.35;;
33830;SDS011;20137;48.834;8.732;2023-09-08T05:03:07;9.30;;;8.02;;
33830;SDS011;20137;48.834;8.732;2023-09-08T05:05:33;14.35;;;7.82;;
33830;SDS011;20137;48.834;8.732;2023-09-08T05:07:59;13.25;;;8.45;;
33830;SDS011;20137;48.834;8.732;2023-09-08T05:10:25;12.13;;;8.32;;
33830;SDS011;20137;48.834;8.732;2023-09-08T05:12:51;11.13;;;8.20;;
33830;SDS011;20137;48.834;8.732;2023-09-08T05:15:17;13.65;;;7.57;;
33830;SDS011;20137;48.834;8.732;2023-09-08T05:17:46;9.77;;;7.57;;
33830;SDS011;20137;48.834;8.732;2023-09-08T05:20:12;9.93;;;7.40;;
33830;SDS011;20137;48.834;8.732;2023-09-08T05:22:38;11.45;;;7.10;;
33830;SDS011;20137;48.834;8.732;2023-09-08T05:25:04;12.23;;;7.45;;
33830;SDS011;20137;48.834;8.732;2023-09-08T05:27:30;13.02;;;7.80;;
33830;SDS011;20137;48.834;8.732;2023-09-08T05:29:57;10.18;;;7.93;;
33830;SDS011;20137;48.834;8.732;2023-09-08T05:32:23;10.65;;;7.82;;
33830;SDS011;20137;48.834;8.732;2023-09-08T05:34:49;9.18;;;7.63;;
33830;SDS011;20137;48.834;8.732;2023-09-08T05:37:15;8.80;;;7.15;;
33830;SDS011;20137;48.834;8.732;2023-09-08T05:39:41;9.60;;;7.10;;
33830;SDS011;20137;48.834;8.732;2023-09-08T05:42:07;9.55;;;7.57;;
33830;SDS011;20137;48.834;8.732;2023-09-08T05:44:33;10.50;;;6.85;;
33830;SDS011;20137;48.834;8.732;2023-09-08T05:47:00;9.18;;;7.03;;
33830;SDS011;20137;48.834;8.732;2023-09-08T05:49:26;8.27;;;6.97;;
33830;SDS011;20137;48.834;8.732;2023-09-08T05:51:52;10.82;;;7.45;;
33830;SDS011;20137;48.834;8.732;2023-09-08T05:54:18;8.27;;;6.68;;
33830;SDS011;20137;48.834;8.732;2023-09-08T05:56:44;9.50;;;6.47;;
33830;SDS011;20137;48.834;8.732;2023-09-08T05:59:10;9.40;;;6.45;;
33830;SDS011;20137;48.834;8.732;2023-09-08T06:01:36;10.05;;;6.68;;
33830;SDS011;20137;48.834;8.732;2023-09-08T06:04:02;8.85;;;6.50;;
33830;SDS011;20137;48.834;8.732;2023-09-08T06:06:28;8.13;;;6.72;;
33830;SDS011;20137;48.834;8.732;2023-09-08T06:08:54;8.32;;;6.60;;
33830;SDS011;20137;48.834;8.732;2023-09-08T06:11:20;7.93;;;6.65;;
33830;SDS011;20137;48.834;8.732;2023-09-08T06:13:46;10.60;;;7.07;;
33830;SDS011;20137;48.834;8.732;2023-09-08T06:16:12;11.38;;;7.28;;
33830;SDS011;20137;48.834;8.732;2023-09-08T06:18:38;7.47;;;6.45;;
33830;SDS011;20137;48.834;8.732;2023-09-08T06:21:08;10.90;;;7.82;;
33830;SDS011;20137;48.834;8.732;2023-09-08T06:23:34;9.80;;;6.88;;
33830;SDS011;20137;48.834;8.732;2023-09-08T06:26:01;9.20;;;7.05;;
33830;SDS011;20137;48.834;8.732;2023-09-08T06:28:27;9.23;;;7.38;;
33830;SDS011;20137;48.834;8.732;2023-09-08T06:30:54;9.35;;;7.60;;
33830;SDS011;20137;48.834;8.732;2023-09-08T06:33:20;8.95;;;7.07;;
33830;SDS011;20137;48.834;8.732;2023-09-08T06:35:47;10.93;;;6.97;;
33830;SDS011;20137;48.834;8.732;2023-09-08T06:38:13;9.25;;;6.70;;
33830;SDS011;20137;48.834;8.732;2023-09-08T06:40:39;9.30;;;6.95;;
33830;SDS011;20137;48.834;8.732;2023-09-08T06:43:05;7.50;;;6.70;;
33830;SDS011;20137;48.834;8.732;2023-09-08T06:45:31;9.88;;;7.57;;
33830;SDS011;20137;48.834;8.732;2023-09-08T06:47:58;11.30;;;7.55;;
33830;SDS011;20137;48.834;8.732;2023-09-08T06:50:25;12.48;;;8.43;;
33830;SDS011;20137;48.834;8.732;2023-09-08T06:52:51;10.70;;;7.40;;
33830;SDS011;20137;48.834;8.732;2023-09-08T06:55:18;12.18;;;8.30;;
33830;SDS011;20137;48.834;8.732;2023-09-08T06:57:44;9.68;;;7.28;;
33830;SDS011;20137;48.834;8.732;2023-09-08T07:00:11;12.60;;;7.68;;
33830;SDS011;20137;48.834;8.732;2023-09-08T07:02:40;8.20;;;6.63;;
33830;SDS011;20137;48.834;8.732;2023-09-08T07:05:06;11.30;;;7.03;;
33830;SDS011;20137;48.834;8.732;2023-09-08T07:07:36;10.30;;;7.05;;
33830;SDS011;20137;48.834;8.732;2023-09-08T07:10:03;8.52;;;7.07;;
33830;SDS011;20137;48.834;8.732;2023-09-08T07:12:29;13.20;;;7.95;;
33830;SDS011;20137;48.834;8.732;2023-09-08T07:14:56;12.50;;;8.38;;
33830;SDS011;20137;48.834;8.732;2023-09-08T07:17:22;11.98;;;7.28;;
33830;SDS011;20137;48.834;8.732;2023-09-08T07:19:48;7.97;;;6.95;;
33830;SDS011;20137;48.834;8.732;2023-09-08T07:22:14;9.35;;;6.47;;
33830;SDS011;20137;48.834;8.732;2023-09-08T07:24:40;9.73;;;6.78;;
33830;SDS011;20137;48.834;8.732;2023-09-08T07:27:06;12.45;;;7.05;;
33830;SDS011;20137;48.834;8.732;2023-09-08T07:29:33;9.65;;;7.30;;
33830;SDS011;20137;48.834;8.732;2023-09-08T07:31:59;11.73;;;7.05;;
33830;SDS011;20137;48.834;8.732;2023-09-08T07:34:25;12.20;;;7.72;;
33830;SDS011;20137;48.834;8.732;2023-09-08T07:36:51;11.57;;;8.02;;
33830;SDS011;20137;48.834;8.732;2023-09-08T07:39:17;9.95;;;7.18;;
33830;SDS011;20137;48.834;8.732;2023-09-08T07:41:43;10.50;;;7.50;;
33830;SDS011;20137;48.834;8.732;2023-09-08T07:44:09;12.43;;;7.40;;
33830;SDS011;20137;48.834;8.732;2023-09-08T07:46:35;9.75;;;6.97;;
33830;SDS011;20137;48.834;8.732;2023-09-08T07:49:01;10.95;;;7.93;;
33830;SDS011;20137;48.834;8.732;2023-09-08T07:51:28;10.27;;;6.35;;
33830;SDS011;20137;48.834;8.732;2023-09-08T07:53:54;11.32;;;7.32;;
33830;SDS011;20137;48.834;8.732;2023-09-08T07:56:21;10.27;;;7.50;;
33830;SDS011;20137;48.834;8.732;2023-09-08T07:58:47;9.63;;;7.72;;
33830;SDS011;20137;48.834;8.732;2023-09-08T08:01:13;15.70;;;8.02;;
33830;SDS011;20137;48.834;8.732;2023-09-08T08:03:40;11.50;;;7.47;;
33830;SDS011;20137;48.834;8.732;2023-09-08T08:06:06;9.73;;;7.50;;
33830;SDS011;20137;48.834;8.732;2023-09-08T08:08:33;10.93;;;7.28;;
33830;SDS011;20137;48.834;8.732;2023-09-08T08:11:07;10.02;;;7.43;;
33830;SDS011;20137;48.834;8.732;2023-09-08T08:13:33;11.23;;;7.45;;
33830;SDS011;20137;48.834;8.732;2023-09-08T08:15:59;10.73;;;6.30;;
33830;SDS011;20137;48.834;8.732;2023-09-08T08:18:26;7.40;;;6.60;;
33830;SDS011;20137;48.834;8.732;2023-09-08T08:20:52;15.00;;;7.32;;
33830;SDS011;20137;48.834;8.732;2023-09-08T08:23:18;9.23;;;7.28;;
33830;SDS011;20137;48.834;8.732;2023-09-08T08:25:44;9.13;;;7.10;;
33830;SDS011;20137;48.834;8.732;2023-09-08T08:28:10;9.45;;;6.90;;
33830;SDS011;20137;48.834;8.732;2023-09-08T08:30:36;9.45;;;6.90;;
33830;SDS011;20137;48.834;8.732;2023-09-08T08:33:02;9.85;;;6.95;;
33830;SDS011;20137;48.834;8.732;2023-09-08T08:35:29;8.23;;;6.78;;
33830;SDS011;20137;48.834;8.732;2023-09-08T08:37:57;8.55;;;6.88;;
33830;SDS011;20137;48.834;8.732;2023-09-08T08:40:23;11.27;;;7.53;;
33830;SDS011;20137;48.834;8.732;2023-09-08T08:42:54;7.90;;;6.25;;
33830;SDS011;20137;48.834;8.732;2023-09-08T08:45:20;9.40;;;7.25;;
33830;SDS011;20137;48.834;8.732;2023-09-08T08:47:48;10.20;;;7.20;;
33830;SDS011;20137;48.834;8.732;2023-09-08T08:50:14;9.55;;;7.28;;
33830;SDS011;20137;48.834;8.732;2023-09-08T08:52:42;11.05;;;7.10;;
33830;SDS011;20137;48.834;8.732;2023-09-08T08:55:08;8.95;;;6.95;;
33830;SDS011;20137;48.834;8.732;2023-09-08T08:57:36;8.30;;;6.40;;
33830;SDS011;20137;48.834;8.732;2023-09-08T09:00:03;8.48;;;6.68;;
33830;SDS011;20137;48.834;8.732;2023-09-08T09:02:34;8.73;;;7.13;;
33830;SDS011;20137;48.834;8.732;2023-09-08T09:05:01;8.60;;;6.93;;
33830;SDS011;20137;48.834;8.732;2023-09-08T09:07:27;8.57;;;6.70;;
33830;SDS011;20137;48.834;8.732;2023-09-08T09:09:53;9.77;;;7.18;;
33830;SDS011;20137;48.834;8.732;2023-09-08T09:12:20;10.40;;;7.40;;
33830;SDS011;20137;48.834;8.732;2023-09-08T09:14:47;9.75;;;7.28;;
33830;SDS011;20137;48.834;8.732;2023-09-08T09:17:13;12.23;;;7.60;;
33830;SDS011;20137;48.834;8.732;2023-09-08T09:19:40;11.13;;;6.68;;
33830;SDS011;20137;48.834;8.732;2023-09-08T09:22:06;10.40;;;7.78;;
33830;SDS011;20137;48.834;8.732;2023-09-08T09:24:36;9.57;;;7.15;;
33830;SDS011;20137;48.834;8.732;2023-09-08T09:27:05;9.32;;;7.30;;
33830;SDS011;20137;48.834;8.732;2023-09-08T09:29:32;8.75;;;6.93;;
33830;SDS011;20137;48.834;8.732;2023-09-08T09:34:24;12.30;;;7.00;;
33830;SDS011;20137;48.834;8.732;2023-09-08T09:36:50;8.45;;;7.30;;
33830;SDS011;20137;48.834;8.732;2023-09-08T09:39:20;8.23;;;6.30;;
33830;SDS011;20137;48.834;8.732;2023-09-08T09:41:47;12.60;;;7.25;;
33830;SDS011;20137;48.834;8.732;2023-09-08T09:44:13;10.35;;;7.60;;
33830;SDS011;20137;48.834;8.732;2023-09-08T09:46:43;8.63;;;7.07;;
33830;SDS011;20137;48.834;8.732;2023-09-08T09:49:10;10.07;;;7.43;;
33830;SDS011;20137;48.834;8.732;2023-09-08T09:51:42;11.45;;;7.53;;
33830;SDS011;20137;48.834;8.732;2023-09-08T09:54:08;9.20;;;7.15;;
33830;SDS011;20137;48.834;8.732;2023-09-08T09:56:34;12.15;;;7.65;;
33830;SDS011;20137;48.834;8.732;2023-09-08T09:59:01;9.35;;;7.53;;
33830;SDS011;20137;48.834;8.732;2023-09-08T10:01:29;8.70;;;7.03;;
33830;SDS011;20137;48.834;8.732;2023-09-08T10:03:55;9.43;;;6.57;;
33830;SDS011;20137;48.834;8.732;2023-09-08T10:06:21;7.40;;;6.55;;
33830;SDS011;20137;48.834;8.732;2023-09-08T10:08:47;9.23;;;7.07;;
33830;SDS011;20137;48.834;8.732;2023-09-08T10:11:13;10.88;;;7.60;;
33830;SDS011;20137;48.834;8.732;2023-09-08T10:13:42;9.73;;;7.30;;
33830;SDS011;20137;48.834;8.732;2023-09-08T10:16:08;16.85;;;8.15;;
33830;SDS011;20137;48.834;8.732;2023-09-08T10:18:35;12.80;;;7.40;;
33830;SDS011;20137;48.834;8.732;2023-09-08T10:21:03;14.10;;;7.63;;
33830;SDS011;20137;48.834;8.732;2023-09-08T10:25:57;12.73;;;7.80;;
33830;SDS011;20137;48.834;8.732;2023-09-08T10:28:25;16.15;;;7.45;;
33830;SDS011;20137;48.834;8.732;2023-09-08T10:30:51;11.20;;;7.95;;
33830;SDS011;20137;48.834;8.732;2023-09-08T10:33:17;13.43;;;8.02;;
33830;SDS011;20137;48.834;8.732;2023-09-08T10:35:44;11.43;;;7.88;;
33830;SDS011;20137;48.834;8.732;2023-09-08T10:38:26;13.27;;;9.25;;
33830;SDS011;20137;48.834;8.732;2023-09-08T10:40:53;12.93;;;8.93;;
33830;SDS011;20137;48.834;8.732;2023-09-08T10:43:19;14.80;;;8.95;;
33830;SDS011;20137;48.834;8.732;2023-09-08T10:45:46;11.60;;;8.57;;
33830;SDS011;20137;48.834;8.732;2023-09-08T10:48:12;12.23;;;8.73;;
33830;SDS011;20137;48.834;8.732;2023-09-08T10:50:40;14.98;;;8.90;;
33830;SDS011;20137;48.834;8.732;2023-09-08T10:58:32;12.38;;;8.05;;
33830;SDS011;20137;48.834;8.732;2023-09-08T11:00:59;9.73;;;8.65;;
33830;SDS011;20137;48.834;8.732;2023-09-08T11:06:07;11.50;;;8.68;;
33830;SDS011;20137;48.834;8.732;2023-09-08T11:08:33;14.05;;;8.85;;
33830;SDS011;20137;48.834;8.732;2023-09-08T11:11:00;11.18;;;8.70;;
33830;SDS011;20137;48.834;8.732;2023-09-08T11:13:27;12.55;;;8.80;;
33830;SDS011;20137;48.834;8.732;2023-09-08T11:15:53;11.57;;;8.60;;
33830;SDS011;20137;48.834;8.732;2023-09-08T11:18:28;10.65;;;7.82;;
33830;SDS011;20137;48.834;8.732;2023-09-08T11:20:55;12.77;;;8.05;;
33830;SDS011;20137;48.834;8.732;2023-09-08T11:23:21;13.95;;;7.60;;
33830;SDS011;20137;48.834;8.732;2023-09-08T11:25:49;11.68;;;8.50;;
33830;SDS011;20137;48.834;8.732;2023-09-08T11:28:15;9.98;;;7.63;;
33830;SDS011;20137;48.834;8.732;2023-09-08T11:30:41;10.23;;;8.25;;
33830;SDS011;20137;48.834;8.732;2023-09-08T11:33:14;13.40;;;8.23;;
33830;SDS011;20137;48.834;8.732;2023-09-08T11:35:40;10.38;;;7.70;;
33830;SDS011;20137;48.834;8.732;2023-09-08T11:38:09;11.18;;;8.27;;
33830;SDS011;20137;48.834;8.732;2023-09-08T11:40:35;9.80;;;8.32;;
33830;SDS011;20137;48.834;8.732;2023-09-08T11:43:02;8.95;;;8.05;;
33830;SDS011;20137;48.834;8.732;2023-09-08T11:45:28;9.15;;;8.25;;
33830;SDS011;20137;48.834;8.732;2023-09-08T11:47:55;9.05;;;7.90;;
33830;SDS011;20137;48.834;8.732;2023-09-08T11:50:21;10.27;;;8.18;;
33830;SDS011;20137;48.834;8.732;2023-09-08T11:52:49;11.15;;;7.85;;
33830;SDS011;20137;48.834;8.732;2023-09-08T11:55:15;13.63;;;7.97;;
33830;SDS011;20137;48.834;8.732;2023-09-08T11:57:42;10.85;;;7.90;;
33830;SDS011;20137;48.834;8.732;2023-09-08T12:00:10;10.57;;;7.90;;
33830;SDS011;20137;48.834;8.732;2023-09-08T12:02:41;9.80;;;7.85;;
33830;SDS011;20137;48.834;8.732;2023-09-08T12:05:13;12.52;;;8.00;;
33830;SDS011;20137;48.834;8.732;2023-09-08T12:07:40;13.23;;;8.00;;
33830;SDS011;20137;48.834;8.732;2023-09-08T12:10:07;9.60;;;7.47;;
33830;SDS011;20137;48.834;8.732;2023-09-08T12:12:34;8.77;;;7.88;;
33830;SDS011;20137;48.834;8.732;2023-09-08T12:15:00;13.25;;;7.80;;
33830;SDS011;20137;48.834;8.732;2023-09-08T12:17:26;9.25;;;6.80;;
33830;SDS011;20137;48.834;8.732;2023-09-08T12:19:53;10.18;;;8.27;;
33830;SDS011;20137;48.834;8.732;2023-09-08T12:22:19;11.45;;;7.88;;
33830;SDS011;20137;48.834;8.732;2023-09-08T12:27:21;11.10;;;7.93;;
33830;SDS011;20137;48.834;8.732;2023-09-08T12:29:55;10.25;;;8.15;;
33830;SDS011;20137;48.834;8.732;2023-09-08T12:32:21;10.68;;;7.75;;
33830;SDS011;20137;48.834;8.732;2023-09-08T12:34:47;7.90;;;7.00;;
33830;SDS011;20137;48.834;8.732;2023-09-08T12:37:13;10.02;;;6.70;;
33830;SDS011;20137;48.834;8.732;2023-09-08T12:39:39;8.13;;;7.32;;
33830;SDS011;20137;48.834;8.732;2023-09-08T12:42:05;9.23;;;7.82;;
33830;SDS011;20137;48.834;8.732;2023-09-08T12:44:31;11.70;;;7.03;;
33830;SDS011;20137;48.834;8.732;2023-09-08T12:46:58;9.55;;;7.40;;
33830;SDS011;20137;48.834;8.732;2023-09-08T12:49:24;9.25;;;7.00;;
33830;SDS011;20137;48.834;8.732;2023-09-08T12:51:50;11.35;;;7.63;;
33830;SDS011;20137;48.834;8.732;2023-09-08T12:54:16;10.13;;;6.47;;
33830;SDS011;20137;48.834;8.732;2023-09-08T12:56:42;8.85;;;6.68;;
33830;SDS011;20137;48.834;8.732;2023-09-08T12:59:08;17.13;;;7.53;;
33830;SDS011;20137;48.834;8.732;2023-09-08T13:01:34;12.52;;;7.70;;
33830;SDS011;20137;48.834;8.732;2023-09-08T13:04:00;11.50;;;7.63;;
33830;SDS011;20137;48.834;8.732;2023-09-08T13:06:26;11.35;;;7.30;;
33830;SDS011;20137;48.834;8.732;2023-09-08T13:08:52;9.18;;;7.63;;
33830;SDS011;20137;48.834;8.732;2023-09-08T13:11:18;9.65;;;7.40;;
33830;SDS011;20137;48.834;8.732;2023-09-08T13:13:44;11.43;;;7.32;;
33830;SDS011;20137;48.834;8.732;2023-09-08T13:16:10;10.43;;;7.03;;
33830;SDS011;20137;48.834;8.732;2023-09-08T13:18:36;12.07;;;8.02;;
33830;SDS011;20137;48.834;8.732;2023-09-08T13:21:04;9.85;;;7.38;;
33830;SDS011;20137;48.834;8.732;2023-09-08T13:23:30;11.57;;;7.40;;
33830;SDS011;20137;48.834;8.732;2023-09-08T13:25:56;7.70;;;6.80;;
33830;SDS011;20137;48.834;8.732;2023-09-08T13:28:22;10.80;;;7.10;;
33830;SDS011;20137;48.834;8.732;2023-09-08T13:30:48;10.40;;;7.20;;
33830;SDS011;20137;48.834;8.732;2023-09-08T13:33:14;8.70;;;6.45;;
33830;SDS011;20137;48.834;8.732;2023-09-08T13:35:40;11.73;;;7.50;;
33830;SDS011;20137;48.834;8.732;2023-09-08T13:38:06;10.25;;;6.97;;
33830;SDS011;20137;48.834;8.732;2023-09-08T13:40:32;9.45;;;7.18;;
33830;SDS011;20137;48.834;8.732;2023-09-08T13:42:58;12.05;;;8.35;;
33830;SDS011;20137;48.834;8.732;2023-09-08T13:45:25;10.88;;;7.75;;
33830;SDS011;20137;48.834;8.732;2023-09-08T13:47:51;13.55;;;8.15;;
33830;SDS011;20137;48.834;8.732;2023-09-08T13:50:17;10.00;;;7.65;;
33830;SDS011;20137;48.834;8.732;2023-09-08T13:52:43;12.15;;;7.53;;
33830;SDS011;20137;48.834;8.732;2023-09-08T13:55:10;9.40;;;6.45;;
33830;SDS011;20137;48.834;8.732;2023-09-08T13:57:36;10.38;;;7.30;;
33830;SDS011;20137;48.834;8.732;2023-09-08T14:00:02;9.05;;;7.18;;
33830;SDS011;20137;48.834;8.732;2023-09-08T14:02:29;9.20;;;7.22;;
33830;SDS011;20137;48.834;8.732;2023-09-08T14:04:55;8.25;;;7.22;;
33830;SDS011;20137;48.834;8.732;2023-09-08T14:07:21;10.68;;;7.13;;
33830;SDS011;20137;48.834;8.732;2023-09-08T14:09:47;9.40;;;7.38;;
33830;SDS011;20137;48.834;8.732;2023-09-08T14:12:13;9.20;;;6.97;;
33830;SDS011;20137;48.834;8.732;2023-09-08T14:14:39;8.43;;;7.47;;
33830;SDS011;20137;48.834;8.732;2023-09-08T14:17:05;8.00;;;6.40;;
33830;SDS011;20137;48.834;8.732;2023-09-08T14:19:31;9.63;;;6.93;;
33830;SDS011;20137;48.834;8.732;2023-09-08T14:21:57;10.38;;;7.38;;
33830;SDS011;20137;48.834;8.732;2023-09-08T14:24:23;8.52;;;6.85;;
33830;SDS011;20137;48.834;8.732;2023-09-08T14:26:49;7.07;;;6.38;;
33830;SDS011;20137;48.834;8.732;2023-09-08T14:29:16;9.25;;;6.85;;
33830;SDS011;20137;48.834;8.732;2023-09-08T14:31:42;8.70;;;6.97;;
33830;SDS011;20137;48.834;8.732;2023-09-08T14:34:08;7.18;;;6.47;;
33830;SDS011;20137;48.834;8.732;2023-09-08T14:36:34;9.98;;;6.53;;
33830;SDS011;20137;48.834;8.732;2023-09-08T14:39:00;9.07;;;6.90;;
33830;SDS011;20137;48.834;8.732;2023-09-08T14:41:28;11.00;;;6.90;;
33830;SDS011;20137;48.834;8.732;2023-09-08T14:43:55;7.35;;;6.65;;
33830;SDS011;20137;48.834;8.732;2023-09-08T14:46:21;10.43;;;7.38;;
33830;SDS011;20137;48.834;8.732;2023-09-08T14:48:47;9.13;;;6.82;;
33830;SDS011;20137;48.834;8.732;2023-09-08T14:51:13;12.65;;;7.38;;
33830;SDS011;20137;48.834;8.732;2023-09-08T14:53:39;8.15;;;6.82;;
33830;SDS011;20137;48.834;8.732;2023-09-08T14:56:05;9.93;;;7.25;;